Time;durP1;ratioP1;P1;durP2;ratioP2;P2;SDS_P1;SDS_P2;PMS_P1;PMS_P2;Temp;Humidity;BMP_temperature;BMP_pressure;BME280_temperature;BME280_humidity;BME280_pressure;Samples;Min_cycle;Max_cycle;Signal;HPM_P1;HPM_P2
2022/07/09 00:00:30;;;;;;;5.10;4.90;;;;;;;;;;5076422;28;20465;-62
2022/07/09 00:02:55;;;;;;;4.95;4.75;;;;;;;;;;5073049;28;20027;-62
2022/07/09 00:05:20;;;;;;;5.00;4.80;;;;;;;;;;5071539;28;20696;-63
2022/07/09 00:07:45;;;;;;;5.10;4.90;;;;;;;;;;5074250;28;20036;-62
2022/07/09 00:10:11;;;;;;;4.97;4.78;;;;;;;;;;5073517;28;20024;-61
2022/07/09 00:12:36;;;;;;;4.97;4.78;;;;;;;;;;5078690;28;20028;-62
2022/07/09 00:15:02;;;;;;;4.90;4.70;;;;;;;;;;5077174;28;20077;-62
2022/07/09 00:17:29;;;;;;;4.88;4.68;;;;;;;;;;5074471;28;20028;-61
2022/07/09 00:19:55;;;;;;;4.88;4.68;;;;;;;;;;5071010;28;20020;-61
2022/07/09 00:22:21;;;;;;;4.90;4.70;;;;;;;;;;5072908;28;20028;-63
2022/07/09 00:24:46;;;;;;;4.85;4.65;;;;;;;;;;5073666;28;20043;-62
2022/07/09 00:27:11;;;;;;;4.80;4.60;;;;;;;;;;5072599;28;20103;-61
2022/07/09 00:29:37;;;;;;;4.90;4.70;;;;;;;;;;5074592;28;20223;-62
2022/07/09 00:32:02;;;;;;;4.90;4.70;;;;;;;;;;5070936;28;20032;-62
2022/07/09 00:34:27;;;;;;;5.00;4.80;;;;;;;;;;5073948;28;20389;-62
2022/07/09 00:36:53;;;;;;;5.00;4.80;;;;;;;;;;5073376;28;20028;-62
2022/07/09 00:39:18;;;;;;;4.90;4.70;;;;;;;;;;5067293;28;20419;-62
2022/07/09 00:41:43;;;;;;;4.95;4.75;;;;;;;;;;5077489;28;20708;-62
2022/07/09 00:44:08;;;;;;;4.88;4.68;;;;;;;;;;5074641;28;20024;-62
2022/07/09 00:46:34;;;;;;;4.80;4.60;;;;;;;;;;5075647;28;20203;-63
2022/07/09 00:49:03;;;;;;;4.80;4.60;;;;;;;;;;5080344;28;20055;-64
2022/07/09 00:51:29;;;;;;;4.88;4.68;;;;;;;;;;5077798;28;22314;-63
2022/07/09 00:53:55;;;;;;;4.80;4.60;;;;;;;;;;5076536;28;20024;-62
2022/07/09 00:56:20;;;;;;;4.80;4.60;;;;;;;;;;5076958;28;20016;-62
2022/07/09 00:58:46;;;;;;;4.90;4.70;;;;;;;;;;5077966;28;20025;-63
2022/07/09 01:01:11;;;;;;;4.85;4.65;;;;;;;;;;5076384;28;21176;-62
2022/07/09 01:03:37;;;;;;;4.93;4.72;;;;;;;;;;5074554;28;20026;-63
2022/07/09 01:06:02;;;;;;;4.80;4.60;;;;;;;;;;5077281;28;20020;-62
2022/07/09 01:08:27;;;;;;;4.95;4.75;;;;;;;;;;5075451;28;20026;-63
2022/07/09 01:10:53;;;;;;;5.00;4.80;;;;;;;;;;5077401;28;20016;-63
2022/07/09 01:13:18;;;;;;;4.75;4.55;;;;;;;;;;5076003;28;20032;-62
2022/07/09 01:15:44;;;;;;;4.80;4.60;;;;;;;;;;5075457;28;20040;-62
2022/07/09 01:18:10;;;;;;;4.85;4.65;;;;;;;;;;5078887;28;20091;-62
2022/07/09 01:20:35;;;;;;;4.80;4.60;;;;;;;;;;5076001;28;20040;-61
2022/07/09 01:23:00;;;;;;;4.90;4.70;;;;;;;;;;5074624;28;20055;-62
2022/07/09 01:25:35;;;;;;;4.75;4.55;;;;;;;;;;5077442;28;20106;-63
2022/07/09 01:28:00;;;;;;;4.90;4.70;;;;;;;;;;5074753;28;20050;-61
2022/07/09 01:30:26;;;;;;;4.70;4.50;;;;;;;;;;5078047;28;20451;-62
2022/07/09 01:32:52;;;;;;;4.70;4.50;;;;;;;;;;5077337;28;20525;-62
2022/07/09 01:35:18;;;;;;;4.65;4.45;;;;;;;;;;5075277;28;20036;-61
2022/07/09 01:37:43;;;;;;;4.88;4.68;;;;;;;;;;5075203;28;20103;-63
2022/07/09 01:40:09;;;;;;;4.93;4.72;;;;;;;;;;5076447;28;20143;-61
2022/07/09 01:42:34;;;;;;;4.70;4.50;;;;;;;;;;5076398;28;20365;-62
2022/07/09 01:44:59;;;;;;;4.55;4.35;;;;;;;;;;5076217;28;20478;-62
2022/07/09 01:47:25;;;;;;;4.53;4.32;;;;;;;;;;5075522;28;20028;-61
2022/07/09 01:49:50;;;;;;;4.70;4.50;;;;;;;;;;5074850;28;20040;-61
2022/07/09 01:52:15;;;;;;;4.75;4.55;;;;;;;;;;5073997;28;20442;-61
2022/07/09 01:54:41;;;;;;;4.75;4.55;;;;;;;;;;5078612;28;20046;-61
2022/07/09 01:57:06;;;;;;;4.90;4.70;;;;;;;;;;5075716;28;20031;-63
2022/07/09 01:59:31;;;;;;;4.90;4.70;;;;;;;;;;5076864;28;20028;-62
2022/07/09 02:01:57;;;;;;;4.90;4.70;;;;;;;;;;5079733;28;20020;-61
2022/07/09 02:04:22;;;;;;;4.85;4.65;;;;;;;;;;5074530;28;20052;-62
2022/07/09 02:06:47;;;;;;;4.80;4.60;;;;;;;;;;5074655;28;20020;-63
2022/07/09 02:09:13;;;;;;;4.70;4.50;;;;;;;;;;5074573;28;20264;-62
2022/07/09 02:11:38;;;;;;;4.90;4.70;;;;;;;;;;5077433;28;20369;-63
2022/07/09 02:14:04;;;;;;;4.80;4.60;;;;;;;;;;5082983;28;20118;-61
2022/07/09 02:16:29;;;;;;;4.70;4.50;;;;;;;;;;5075221;28;20619;-61
2022/07/09 02:18:55;;;;;;;4.90;4.70;;;;;;;;;;5075491;28;20566;-61
2022/07/09 02:21:20;;;;;;;4.80;4.60;;;;;;;;;;5072307;28;20031;-63
2022/07/09 02:23:46;;;;;;;4.82;4.63;;;;;;;;;;5073755;28;20487;-63
2022/07/09 02:26:12;;;;;;;4.88;4.68;;;;;;;;;;5074548;28;20107;-63
2022/07/09 02:28:37;;;;;;;4.85;4.65;;;;;;;;;;5075997;28;20103;-63
2022/07/09 02:31:02;;;;;;;4.78;4.57;;;;;;;;;;5076477;28;20020;-64
2022/07/09 02:33:30;;;;;;;4.70;4.50;;;;;;;;;;5088269;28;20085;-62
2022/07/09 02:35:55;;;;;;;4.80;4.60;;;;;;;;;;5074764;28;20024;-61
2022/07/09 02:38:21;;;;;;;4.80;4.60;;;;;;;;;;5076828;28;20069;-63
2022/07/09 02:40:47;;;;;;;4.80;4.60;;;;;;;;;;5077887;28;20040;-62
2022/07/09 02:43:12;;;;;;;4.80;4.60;;;;;;;;;;5079236;28;20044;-62
2022/07/09 02:45:37;;;;;;;4.68;4.47;;;;;;;;;;5077554;28;20103;-62
2022/07/09 02:48:03;;;;;;;4.75;4.55;;;;;;;;;;5077156;28;20016;-62
2022/07/09 02:50:28;;;;;;;4.80;4.60;;;;;;;;;;5076155;28;20111;-61
2022/07/09 02:52:53;;;;;;;4.82;4.63;;;;;;;;;;5074876;28;20093;-62
2022/07/09 02:55:18;;;;;;;5.07;4.88;;;;;;;;;;5071944;28;20024;-62
2022/07/09 02:57:44;;;;;;;4.95;4.75;;;;;;;;;;5071714;28;20024;-61
2022/07/09 03:00:09;;;;;;;4.93;4.72;;;;;;;;;;5075574;28;20024;-62
2022/07/09 03:02:35;;;;;;;5.10;4.90;;;;;;;;;;5071100;28;20020;-63
2022/07/09 03:05:00;;;;;;;4.90;4.70;;;;;;;;;;5091245;28;20493;-61
2022/07/09 03:07:26;;;;;;;4.85;4.65;;;;;;;;;;5091398;28;20028;-64
2022/07/09 03:09:51;;;;;;;4.95;4.75;;;;;;;;;;5089383;28;20376;-62
2022/07/09 03:12:16;;;;;;;4.97;4.78;;;;;;;;;;5091527;28;20150;-63
2022/07/09 03:14:42;;;;;;;5.10;4.90;;;;;;;;;;5091397;28;20024;-62
2022/07/09 03:17:07;;;;;;;5.20;5.00;;;;;;;;;;5092112;28;20017;-61
2022/07/09 03:19:33;;;;;;;5.20;5.00;;;;;;;;;;5091247;28;20027;-62
2022/07/09 03:21:58;;;;;;;5.28;5.07;;;;;;;;;;5091994;28;20487;-63
2022/07/09 03:24:23;;;;;;;5.20;5.00;;;;;;;;;;5091737;28;20464;-62
2022/07/09 03:26:49;;;;;;;5.22;5.03;;;;;;;;;;5090610;28;20103;-62
2022/07/09 03:29:14;;;;;;;5.25;5.05;;;;;;;;;;5078649;28;20498;-61
2022/07/09 03:31:40;;;;;;;5.50;5.30;;;;;;;;;;5090974;28;20028;-63
2022/07/09 03:34:05;;;;;;;5.43;5.22;;;;;;;;;;5092184;28;20431;-62
2022/07/09 03:36:31;;;;;;;5.60;5.40;;;;;;;;;;5092125;28;20875;-61
2022/07/09 03:38:56;;;;;;;5.60;5.40;;;;;;;;;;5092447;28;20101;-61
2022/07/09 03:41:22;;;;;;;5.53;5.32;;;;;;;;;;5092527;28;20657;-62
2022/07/09 03:43:47;;;;;;;5.50;5.30;;;;;;;;;;5090819;28;20023;-63
2022/07/09 03:46:12;;;;;;;5.50;5.30;;;;;;;;;;5091918;28;20039;-62
2022/07/09 03:48:37;;;;;;;5.45;5.25;;;;;;;;;;5090612;28;20044;-62
2022/07/09 03:51:03;;;;;;;5.45;5.25;;;;;;;;;;5092013;28;20034;-61
2022/07/09 03:53:28;;;;;;;5.47;5.28;;;;;;;;;;5091890;28;20474;-61
2022/07/09 03:55:53;;;;;;;5.50;5.30;;;;;;;;;;5091850;28;20024;-61
2022/07/09 03:58:19;;;;;;;5.32;5.13;;;;;;;;;;5091971;28;20024;-61
2022/07/09 04:00:44;;;;;;;5.43;5.22;;;;;;;;;;5101652;28;20475;-62
2022/07/09 04:03:09;;;;;;;5.47;5.28;;;;;;;;;;5091637;28;20024;-61
2022/07/09 04:05:35;;;;;;;5.60;5.40;;;;;;;;;;5090798;28;20056;-62
2022/07/09 04:08:00;;;;;;;5.60;5.40;;;;;;;;;;5091615;28;20039;-61
2022/07/09 04:10:26;;;;;;;5.60;5.40;;;;;;;;;;5090769;28;20078;-62
2022/07/09 04:12:51;;;;;;;5.70;5.50;;;;;;;;;;5091505;28;20028;-62
2022/07/09 04:15:17;;;;;;;5.53;5.32;;;;;;;;;;5094106;28;20463;-63
2022/07/09 04:17:42;;;;;;;5.70;5.50;;;;;;;;;;5084417;28;20022;-62
2022/07/09 04:20:07;;;;;;;5.70;5.50;;;;;;;;;;5095575;28;20042;-61
2022/07/09 04:22:33;;;;;;;5.60;5.40;;;;;;;;;;5093619;28;20031;-63
2022/07/09 04:24:59;;;;;;;5.60;5.40;;;;;;;;;;5083046;28;20025;-63
2022/07/09 04:27:26;;;;;;;5.50;5.30;;;;;;;;;;5094938;28;20031;-62
2022/07/09 04:29:51;;;;;;;5.60;5.40;;;;;;;;;;5095864;28;20436;-62
2022/07/09 04:32:16;;;;;;;5.40;5.20;;;;;;;;;;5096170;28;20024;-62
2022/07/09 04:34:42;;;;;;;5.47;5.28;;;;;;;;;;5083089;28;20420;-62
2022/07/09 04:37:08;;;;;;;5.50;5.30;;;;;;;;;;5095161;28;20027;-62
2022/07/09 04:39:33;;;;;;;5.30;5.10;;;;;;;;;;5094566;28;20078;-63
2022/07/09 04:41:59;;;;;;;5.40;5.20;;;;;;;;;;5095235;28;20042;-62
2022/07/09 04:44:24;;;;;;;5.43;5.22;;;;;;;;;;5095406;28;20020;-61
2022/07/09 04:46:50;;;;;;;5.40;5.20;;;;;;;;;;5095222;28;20161;-62
2022/07/09 04:49:15;;;;;;;5.30;5.10;;;;;;;;;;5096840;28;20441;-63
2022/07/09 04:51:40;;;;;;;5.35;5.15;;;;;;;;;;5093981;28;20548;-62
2022/07/09 04:54:06;;;;;;;5.47;5.28;;;;;;;;;;5094893;28;20020;-62
2022/07/09 04:56:31;;;;;;;5.47;5.28;;;;;;;;;;5092356;28;20054;-62
2022/07/09 04:59:00;;;;;;;5.30;5.10;;;;;;;;;;5097097;28;20095;-62
2022/07/09 05:01:25;;;;;;;5.45;5.25;;;;;;;;;;5098120;28;20020;-63
2022/07/09 05:03:50;;;;;;;5.40;5.20;;;;;;;;;;5095088;28;20027;-62
2022/07/09 05:06:16;;;;;;;5.50;5.30;;;;;;;;;;5097420;28;20020;-62
2022/07/09 05:08:42;;;;;;;5.50;5.30;;;;;;;;;;5094541;28;20028;-62
2022/07/09 05:11:07;;;;;;;5.47;5.28;;;;;;;;;;5086643;28;20020;-62
2022/07/09 05:13:33;;;;;;;5.45;5.25;;;;;;;;;;5093783;28;20058;-62
2022/07/09 05:15:58;;;;;;;5.50;5.30;;;;;;;;;;5094671;28;20016;-62
2022/07/09 05:18:23;;;;;;;5.50;5.30;;;;;;;;;;5094500;28;20027;-63
2022/07/09 05:20:48;;;;;;;5.50;5.30;;;;;;;;;;5090189;28;20012;-62
2022/07/09 05:23:14;;;;;;;5.40;5.20;;;;;;;;;;5094444;28;20043;-62
2022/07/09 05:25:39;;;;;;;5.47;5.28;;;;;;;;;;5094201;28;20035;-61
2022/07/09 05:28:04;;;;;;;5.38;5.18;;;;;;;;;;5093639;28;20024;-61
2022/07/09 05:30:30;;;;;;;5.40;5.20;;;;;;;;;;5093785;28;20042;-61
2022/07/09 05:32:55;;;;;;;5.35;5.15;;;;;;;;;;5094574;28;20028;-62
2022/07/09 05:35:20;;;;;;;5.60;5.40;;;;;;;;;;5094455;28;20034;-63
2022/07/09 05:37:46;;;;;;;5.70;5.50;;;;;;;;;;5093245;28;20016;-62
2022/07/09 05:40:11;;;;;;;5.72;5.53;;;;;;;;;;5094589;28;20016;-62
2022/07/09 05:42:37;;;;;;;6.00;5.80;;;;;;;;;;5094221;28;20024;-62
2022/07/09 05:45:02;;;;;;;5.80;5.60;;;;;;;;;;5094024;28;20047;-62
2022/07/09 05:47:28;;;;;;;5.60;5.40;;;;;;;;;;5092956;28;20115;-62
2022/07/09 05:49:53;;;;;;;5.90;5.70;;;;;;;;;;5092621;28;20088;-63
2022/07/09 05:52:18;;;;;;;5.80;5.60;;;;;;;;;;5093713;28;20107;-63
2022/07/09 05:54:44;;;;;;;6.10;5.90;;;;;;;;;;5093165;28;20027;-62
2022/07/09 05:57:09;;;;;;;6.00;5.80;;;;;;;;;;5098539;28;20554;-63
2022/07/09 05:59:35;;;;;;;6.03;5.82;;;;;;;;;;5086393;28;20020;-62
2022/07/09 06:02:02;;;;;;;5.80;5.60;;;;;;;;;;5093642;28;20024;-62
2022/07/09 06:04:28;;;;;;;5.90;5.70;;;;;;;;;;5092012;28;20032;-62
2022/07/09 06:06:53;;;;;;;5.60;5.40;;;;;;;;;;5094265;28;20024;-62
2022/07/09 06:09:18;;;;;;;5.63;5.43;;;;;;;;;;5104336;28;20019;-61
2022/07/09 06:11:44;;;;;;;5.72;5.53;;;;;;;;;;5093501;28;20074;-62
2022/07/09 06:14:09;;;;;;;5.70;5.50;;;;;;;;;;5093976;28;20038;-62
2022/07/09 06:16:34;;;;;;;5.45;5.25;;;;;;;;;;5088503;28;20017;-61
2022/07/09 06:19:00;;;;;;;5.47;5.28;;;;;;;;;;5092854;28;20402;-62
2022/07/09 06:21:25;;;;;;;5.55;5.35;;;;;;;;;;5092261;28;20113;-62
2022/07/09 06:23:50;;;;;;;5.50;5.30;;;;;;;;;;5089154;28;20028;-62
2022/07/09 06:26:17;;;;;;;5.70;5.50;;;;;;;;;;5093298;28;20047;-62
2022/07/09 06:28:42;;;;;;;5.40;5.20;;;;;;;;;;5095576;28;20475;-62
2022/07/09 06:31:08;;;;;;;5.70;5.50;;;;;;;;;;5096522;28;20031;-61
2022/07/09 06:33:33;;;;;;;5.50;5.30;;;;;;;;;;5094723;28;20054;-62
2022/07/09 06:35:58;;;;;;;5.70;5.50;;;;;;;;;;5093431;28;20016;-62
2022/07/09 06:38:26;;;;;;;5.57;5.38;;;;;;;;;;5088780;28;20028;-62
2022/07/09 06:40:54;;;;;;;5.55;5.35;;;;;;;;;;5092882;28;20024;-62
2022/07/09 06:43:19;;;;;;;5.57;5.38;;;;;;;;;;5092903;28;20081;-61
2022/07/09 06:45:44;;;;;;;5.60;5.40;;;;;;;;;;5092493;28;20475;-62
2022/07/09 06:48:09;;;;;;;5.50;5.30;;;;;;;;;;5100857;28;20034;-62
2022/07/09 06:50:35;;;;;;;5.45;5.25;;;;;;;;;;5091425;28;20026;-62
2022/07/09 06:53:00;;;;;;;5.50;5.30;;;;;;;;;;5096951;28;20097;-62
2022/07/09 06:55:26;;;;;;;5.47;5.28;;;;;;;;;;5084859;28;20023;-62
2022/07/09 06:57:51;;;;;;;5.40;5.20;;;;;;;;;;5084700;28;20028;-61
2022/07/09 07:00:17;;;;;;;5.50;5.30;;;;;;;;;;5095287;28;20032;-61
2022/07/09 07:02:42;;;;;;;5.63;5.43;;;;;;;;;;5091655;28;20031;-61
2022/07/09 07:05:08;;;;;;;5.57;5.38;;;;;;;;;;5093486;28;20028;-61
2022/07/09 07:07:33;;;;;;;5.55;5.35;;;;;;;;;;5094350;28;20391;-62
2022/07/09 07:09:58;;;;;;;5.65;5.45;;;;;;;;;;5092245;28;20383;-63
2022/07/09 07:12:24;;;;;;;5.25;5.05;;;;;;;;;;5091041;28;20024;-63
2022/07/09 07:14:50;;;;;;;5.57;5.38;;;;;;;;;;5092196;28;20557;-63
2022/07/09 07:17:15;;;;;;;5.60;5.40;;;;;;;;;;5092188;28;20019;-63
2022/07/09 07:19:41;;;;;;;5.40;5.20;;;;;;;;;;5091282;28;20020;-62
2022/07/09 07:22:06;;;;;;;5.40;5.20;;;;;;;;;;5092820;28;20023;-62
2022/07/09 07:24:32;;;;;;;5.50;5.30;;;;;;;;;;5094648;28;20031;-62
2022/07/09 07:26:57;;;;;;;5.60;5.40;;;;;;;;;;5092105;28;20027;-63
2022/07/09 07:29:23;;;;;;;5.50;5.30;;;;;;;;;;5091092;28;20386;-62
2022/07/09 07:31:49;;;;;;;5.60;5.40;;;;;;;;;;5092004;28;20020;-62
2022/07/09 07:34:14;;;;;;;5.63;5.43;;;;;;;;;;5091849;28;20022;-62
2022/07/09 07:36:40;;;;;;;5.65;5.45;;;;;;;;;;5092080;28;20095;-59
2022/07/09 07:39:05;;;;;;;5.55;5.35;;;;;;;;;;5100887;28;20028;-62
2022/07/09 07:41:31;;;;;;;5.70;5.50;;;;;;;;;;5092289;28;20421;-62
2022/07/09 07:43:56;;;;;;;5.60;5.40;;;;;;;;;;5091394;28;21705;-63
2022/07/09 07:46:21;;;;;;;5.53;5.32;;;;;;;;;;5080391;28;20028;-61
2022/07/09 07:48:47;;;;;;;5.68;5.47;;;;;;;;;;5094849;28;20130;-62
2022/07/09 07:51:12;;;;;;;5.70;5.50;;;;;;;;;;5090041;28;20474;-61
2022/07/09 07:53:37;;;;;;;5.78;5.57;;;;;;;;;;5086314;28;20057;-61
2022/07/09 07:56:03;;;;;;;5.70;5.50;;;;;;;;;;5092359;28;20020;-62
2022/07/09 07:58:29;;;;;;;5.70;5.50;;;;;;;;;;5090014;28;20091;-62
2022/07/09 08:00:54;;;;;;;5.72;5.53;;;;;;;;;;5090330;28;20027;-61
2022/07/09 08:03:19;;;;;;;5.80;5.60;;;;;;;;;;5084643;28;20449;-61
2022/07/09 08:05:45;;;;;;;5.55;5.35;;;;;;;;;;5090286;28;20482;-61
2022/07/09 08:08:10;;;;;;;5.88;5.68;;;;;;;;;;5085282;28;20604;-61
2022/07/09 08:10:35;;;;;;;5.75;5.55;;;;;;;;;;5087828;28;20032;-61
2022/07/09 08:13:01;;;;;;;5.90;5.70;;;;;;;;;;5090420;28;20110;-61
2022/07/09 08:15:26;;;;;;;5.78;5.57;;;;;;;;;;5090103;28;20020;-61
2022/07/09 08:17:53;;;;;;;5.80;5.60;;;;;;;;;;5090902;28;20050;-61
2022/07/09 08:20:18;;;;;;;5.60;5.40;;;;;;;;;;5081389;28;20032;-62
2022/07/09 08:22:44;;;;;;;5.68;5.47;;;;;;;;;;5092686;28;20020;-62
2022/07/09 08:25:09;;;;;;;5.50;5.30;;;;;;;;;;5086692;28;20057;-61
2022/07/09 08:27:34;;;;;;;5.70;5.50;;;;;;;;;;5091801;28;20055;-62
2022/07/09 08:30:00;;;;;;;5.63;5.43;;;;;;;;;;5089810;28;20031;-61
2022/07/09 08:32:25;;;;;;;5.90;5.70;;;;;;;;;;5088641;28;20082;-62
2022/07/09 08:34:51;;;;;;;5.75;5.55;;;;;;;;;;5084192;28;20271;-62
2022/07/09 08:37:16;;;;;;;5.68;5.47;;;;;;;;;;5085186;28;20085;-62
2022/07/09 08:39:41;;;;;;;5.50;5.30;;;;;;;;;;5090841;28;20418;-61
2022/07/09 08:42:08;;;;;;;5.60;5.40;;;;;;;;;;5090273;28;20139;-63
2022/07/09 08:44:35;;;;;;;5.60;5.40;;;;;;;;;;5086750;28;20027;-61
2022/07/09 08:47:01;;;;;;;5.60;5.40;;;;;;;;;;5090283;28;20131;-61
2022/07/09 08:49:27;;;;;;;5.72;5.53;;;;;;;;;;5089873;28;20135;-61
2022/07/09 08:51:53;;;;;;;5.68;5.47;;;;;;;;;;5090066;28;20039;-62
2022/07/09 08:54:20;;;;;;;5.70;5.50;;;;;;;;;;5089078;28;20028;-61
2022/07/09 08:56:45;;;;;;;5.50;5.30;;;;;;;;;;5090166;28;20027;-61
2022/07/09 08:59:10;;;;;;;5.70;5.50;;;;;;;;;;5079735;28;20016;-60
2022/07/09 09:01:36;;;;;;;5.60;5.40;;;;;;;;;;5087701;28;20116;-63
2022/07/09 09:04:01;;;;;;;5.60;5.40;;;;;;;;;;5093349;28;20020;-61
2022/07/09 09:06:27;;;;;;;5.65;5.45;;;;;;;;;;5096671;28;20028;-61
2022/07/09 09:08:55;;;;;;;5.70;5.50;;;;;;;;;;5094395;28;20031;-61
2022/07/09 09:11:22;;;;;;;5.60;5.40;;;;;;;;;;5092389;28;20268;-62
2022/07/09 09:13:48;;;;;;;5.60;5.40;;;;;;;;;;5093060;28;20026;-61
2022/07/09 09:16:16;;;;;;;5.63;5.43;;;;;;;;;;5091826;28;20020;-61
2022/07/09 09:18:45;;;;;;;5.70;5.50;;;;;;;;;;5091251;28;20031;-61
2022/07/09 09:21:11;;;;;;;5.70;5.50;;;;;;;;;;5092960;28;20130;-62
2022/07/09 09:23:43;;;;;;;5.45;5.25;;;;;;;;;;5093662;28;20483;-63
2022/07/09 09:26:13;;;;;;;5.50;5.30;;;;;;;;;;5092884;28;20065;-61
2022/07/09 09:28:45;;;;;;;5.50;5.30;;;;;;;;;;5092357;28;20032;-63
2022/07/09 09:31:31;;;;;;;5.70;5.50;;;;;;;;;;5093237;28;20070;-62
2022/07/09 09:34:08;;;;;;;5.70;5.50;;;;;;;;;;5080956;28;20495;-61
2022/07/09 09:36:44;;;;;;;5.68;5.47;;;;;;;;;;5096108;28;20051;-63
2022/07/09 09:39:14;;;;;;;5.60;5.40;;;;;;;;;;5092999;28;20023;-61
2022/07/09 09:41:40;;;;;;;5.60;5.40;;;;;;;;;;5094820;28;20043;-62
2022/07/09 09:44:08;;;;;;;5.70;5.50;;;;;;;;;;5091073;28;20480;-63
2022/07/09 09:46:36;;;;;;;5.70;5.50;;;;;;;;;;5091329;28;20034;-63
2022/07/09 09:49:05;;;;;;;5.57;5.38;;;;;;;;;;5091908;28;20047;-67
2022/07/09 09:51:31;;;;;;;5.55;5.35;;;;;;;;;;5089012;28;20110;-69
2022/07/09 09:53:57;;;;;;;5.78;5.57;;;;;;;;;;5097203;28;20111;-63
2022/07/09 09:56:24;;;;;;;5.70;5.50;;;;;;;;;;5091837;28;20445;-67
2022/07/09 09:58:49;;;;;;;5.55;5.35;;;;;;;;;;5092336;28;20012;-62
2022/07/09 10:01:14;;;;;;;5.80;5.60;;;;;;;;;;5087709;28;20024;-63
2022/07/09 10:03:40;;;;;;;5.72;5.53;;;;;;;;;;5087203;28;20434;-63
2022/07/09 10:06:06;;;;;;;5.90;5.70;;;;;;;;;;5091936;28;20020;-64
2022/07/09 10:08:31;;;;;;;5.70;5.50;;;;;;;;;;5089015;28;20043;-64
2022/07/09 10:10:57;;;;;;;5.63;5.43;;;;;;;;;;5092614;28;20363;-64
2022/07/09 10:13:22;;;;;;;5.80;5.60;;;;;;;;;;5088231;28;20025;-64
2022/07/09 10:15:48;;;;;;;5.72;5.53;;;;;;;;;;5090782;28;20023;-63
2022/07/09 10:18:16;;;;;;;5.65;5.45;;;;;;;;;;5090643;28;20103;-63
2022/07/09 10:20:43;;;;;;;5.70;5.50;;;;;;;;;;5091552;28;20024;-63
2022/07/09 10:23:08;;;;;;;5.68;5.47;;;;;;;;;;5091206;28;20032;-64
2022/07/09 10:25:45;;;;;;;5.65;5.45;;;;;;;;;;5090183;28;20030;-63
2022/07/09 10:28:14;;;;;;;5.55;5.35;;;;;;;;;;5090028;28;20066;-63
2022/07/09 10:30:39;;;;;;;5.43;5.22;;;;;;;;;;5085561;28;20484;-63
2022/07/09 10:33:06;;;;;;;5.47;5.28;;;;;;;;;;5087062;28;20027;-63
2022/07/09 10:35:38;;;;;;;5.60;5.40;;;;;;;;;;5090698;28;20487;-63
2022/07/09 10:38:04;;;;;;;5.47;5.28;;;;;;;;;;5091755;28;20028;-62
2022/07/09 10:40:37;;;;;;;5.57;5.37;;;;;;;;;;5091698;28;20426;-62
2022/07/09 10:43:02;;;;;;;5.70;5.50;;;;;;;;;;5089502;28;20260;-63
2022/07/09 10:45:31;;;;;;;5.65;5.45;;;;;;;;;;5075287;28;20395;-62
2022/07/09 10:47:57;;;;;;;5.50;5.30;;;;;;;;;;5089086;28;20130;-63
2022/07/09 10:50:24;;;;;;;5.60;5.40;;;;;;;;;;5091545;28;20044;-63
2022/07/09 10:52:50;;;;;;;5.53;5.32;;;;;;;;;;5090156;28;20024;-62
2022/07/09 10:55:16;;;;;;;5.45;5.25;;;;;;;;;;5090772;28;20369;-63
2022/07/09 10:57:41;;;;;;;5.60;5.40;;;;;;;;;;5087734;28;20030;-63
2022/07/09 11:00:07;;;;;;;5.40;5.20;;;;;;;;;;5090208;28;20023;-65
2022/07/09 11:02:32;;;;;;;5.50;5.30;;;;;;;;;;5090307;28;20685;-64
2022/07/09 11:04:58;;;;;;;5.40;5.20;;;;;;;;;;5090886;28;20089;-63
2022/07/09 11:07:24;;;;;;;5.28;5.07;;;;;;;;;;5090863;28;20073;-65
2022/07/09 11:09:49;;;;;;;5.38;5.18;;;;;;;;;;5089799;28;20024;-65
2022/07/09 11:12:19;;;;;;;5.50;5.30;;;;;;;;;;5090601;28;20089;-65
2022/07/09 11:14:48;;;;;;;5.40;5.20;;;;;;;;;;5081708;28;20024;-64
2022/07/09 11:17:17;;;;;;;5.40;5.20;;;;;;;;;;5084086;28;20024;-62
2022/07/09 11:19:43;;;;;;;5.50;5.30;;;;;;;;;;5084600;28;20020;-62
2022/07/09 11:22:08;;;;;;;5.40;5.20;;;;;;;;;;5090396;28;20111;-62
2022/07/09 11:24:33;;;;;;;5.65;5.45;;;;;;;;;;5089264;28;20101;-63
2022/07/09 11:27:04;;;;;;;5.60;5.40;;;;;;;;;;5081604;28;20044;-61
2022/07/09 11:29:30;;;;;;;5.43;5.22;;;;;;;;;;5088637;28;20047;-63
2022/07/09 11:31:55;;;;;;;5.50;5.30;;;;;;;;;;5089108;28;20039;-63
2022/07/09 11:34:20;;;;;;;5.30;5.10;;;;;;;;;;5088944;28;20861;-63
2022/07/09 11:36:48;;;;;;;5.60;5.40;;;;;;;;;;5086645;28;20270;-64
2022/07/09 11:39:29;;;;;;;5.43;5.22;;;;;;;;;;5088514;28;20008;-63
2022/07/09 11:41:55;;;;;;;5.45;5.25;;;;;;;;;;5090537;28;20028;-64
2022/07/09 11:44:21;;;;;;;5.53;5.32;;;;;;;;;;5088001;28;20032;-63
2022/07/09 11:46:59;;;;;;;5.40;5.20;;;;;;;;;;5090525;28;20031;-63
2022/07/09 11:49:31;;;;;;;5.57;5.38;;;;;;;;;;5089639;28;20036;-64
2022/07/09 11:51:56;;;;;;;5.50;5.30;;;;;;;;;;5084603;28;20029;-63
2022/07/09 11:54:25;;;;;;;5.60;5.40;;;;;;;;;;5086734;28;20012;-65
2022/07/09 11:56:51;;;;;;;5.60;5.40;;;;;;;;;;5089377;28;20030;-63
2022/07/09 11:59:25;;;;;;;5.70;5.50;;;;;;;;;;5090214;28;20020;-64
2022/07/09 12:01:50;;;;;;;5.75;5.55;;;;;;;;;;5089275;28;20275;-64
2022/07/09 12:04:22;;;;;;;5.50;5.30;;;;;;;;;;5090383;28;20048;-63
2022/07/09 12:06:50;;;;;;;5.57;5.38;;;;;;;;;;5088456;28;20024;-64
2022/07/09 12:09:26;;;;;;;5.55;5.35;;;;;;;;;;5083982;28;20403;-64
2022/07/09 12:11:52;;;;;;;5.65;5.45;;;;;;;;;;5090216;28;20467;-63
2022/07/09 12:14:17;;;;;;;5.53;5.32;;;;;;;;;;5090239;28;20086;-63
2022/07/09 12:16:42;;;;;;;5.53;5.33;;;;;;;;;;5088737;28;20028;-64
2022/07/09 12:19:07;;;;;;;5.50;5.30;;;;;;;;;;5085927;28;20317;-64
2022/07/09 12:21:33;;;;;;;5.60;5.40;;;;;;;;;;5084503;28;20488;-64
2022/07/09 12:23:58;;;;;;;5.63;5.43;;;;;;;;;;5080734;28;20254;-63
2022/07/09 12:26:23;;;;;;;5.70;5.50;;;;;;;;;;5088506;28;20054;-63
2022/07/09 12:28:49;;;;;;;5.63;5.43;;;;;;;;;;5089508;28;20020;-63
2022/07/09 12:31:14;;;;;;;5.78;5.57;;;;;;;;;;5083092;28;20367;-68
2022/07/09 12:33:41;;;;;;;5.60;5.40;;;;;;;;;;5087203;28;20042;-75
2022/07/09 12:36:07;;;;;;;5.60;5.40;;;;;;;;;;5090938;28;20798;-74
2022/07/09 12:38:33;;;;;;;5.50;5.30;;;;;;;;;;5094184;28;20031;-74
2022/07/09 12:40:58;;;;;;;5.50;5.30;;;;;;;;;;5112862;28;20016;-78
2022/07/09 12:43:23;;;;;;;5.40;5.20;;;;;;;;;;5116813;28;20020;-77
2022/07/09 12:45:50;;;;;;;5.60;5.40;;;;;;;;;;5134024;28;20012;-76
2022/07/09 12:48:17;;;;;;;5.70;5.50;;;;;;;;;;5115061;28;20038;-77
2022/07/09 12:50:42;;;;;;;5.40;5.20;;;;;;;;;;5109552;28;20379;-76
2022/07/09 12:53:07;;;;;;;5.47;5.28;;;;;;;;;;5095176;28;20024;-64
2022/07/09 12:55:33;;;;;;;5.50;5.30;;;;;;;;;;5095080;28;20379;-62
2022/07/09 12:57:58;;;;;;;5.60;5.40;;;;;;;;;;5103201;28;20110;-64
2022/07/09 13:00:24;;;;;;;5.60;5.40;;;;;;;;;;5091095;28;20024;-62
2022/07/09 13:02:49;;;;;;;5.70;5.50;;;;;;;;;;5085642;28;20031;-63
2022/07/09 13:05:16;;;;;;;5.43;5.22;;;;;;;;;;5093276;28;20020;-63
2022/07/09 13:07:42;;;;;;;5.55;5.35;;;;;;;;;;5091780;28;20081;-63
2022/07/09 13:10:08;;;;;;;5.60;5.40;;;;;;;;;;5093159;28;20066;-65
2022/07/09 13:12:33;;;;;;;5.70;5.50;;;;;;;;;;5093251;28;20028;-64
2022/07/09 13:14:59;;;;;;;5.63;5.43;;;;;;;;;;5080814;28;20427;-63
2022/07/09 13:17:24;;;;;;;5.60;5.40;;;;;;;;;;5086822;28;20016;-62
2022/07/09 13:19:51;;;;;;;5.70;5.50;;;;;;;;;;5092712;28;20024;-61
2022/07/09 13:22:17;;;;;;;5.60;5.40;;;;;;;;;;5092869;28;20109;-63
2022/07/09 13:24:42;;;;;;;5.40;5.20;;;;;;;;;;5092211;28;20404;-62
2022/07/09 13:27:09;;;;;;;5.53;5.32;;;;;;;;;;5102908;28;20067;-62
2022/07/09 13:29:35;;;;;;;5.55;5.35;;;;;;;;;;5092758;28;20032;-62
2022/07/09 13:32:01;;;;;;;5.57;5.38;;;;;;;;;;5089424;28;20147;-63
2022/07/09 13:34:27;;;;;;;5.57;5.38;;;;;;;;;;5086836;28;20030;-62
2022/07/09 13:36:52;;;;;;;5.75;5.55;;;;;;;;;;5092531;28;20016;-62
2022/07/09 13:39:17;;;;;;;5.57;5.38;;;;;;;;;;5092344;28;20024;-62
2022/07/09 13:41:43;;;;;;;5.50;5.30;;;;;;;;;;5091507;28;20130;-63
2022/07/09 13:44:08;;;;;;;5.70;5.50;;;;;;;;;;5093007;28;20024;-65
2022/07/09 13:46:33;;;;;;;5.50;5.30;;;;;;;;;;5088780;28;20017;-62
2022/07/09 13:48:59;;;;;;;5.40;5.20;;;;;;;;;;5090057;28;20048;-63
2022/07/09 13:51:24;;;;;;;5.40;5.20;;;;;;;;;;5092836;28;20020;-62
2022/07/09 13:53:49;;;;;;;5.60;5.40;;;;;;;;;;5092298;28;20047;-63
2022/07/09 13:56:15;;;;;;;5.47;5.28;;;;;;;;;;5091832;28;20032;-62
2022/07/09 13:58:42;;;;;;;5.55;5.35;;;;;;;;;;5091203;28;20040;-64
2022/07/09 14:01:07;;;;;;;5.60;5.40;;;;;;;;;;5088653;28;20031;-62
2022/07/09 14:03:32;;;;;;;5.70;5.50;;;;;;;;;;5092543;28;20024;-63
2022/07/09 14:05:57;;;;;;;5.50;5.30;;;;;;;;;;5091278;28;20067;-63
2022/07/09 14:08:24;;;;;;;5.47;5.27;;;;;;;;;;5090929;28;20016;-64
2022/07/09 14:10:57;;;;;;;5.50;5.30;;;;;;;;;;5089700;28;20310;-63
2022/07/09 14:13:22;;;;;;;5.70;5.50;;;;;;;;;;5091784;28;20089;-62
2022/07/09 14:15:48;;;;;;;5.50;5.30;;;;;;;;;;5085201;28;20048;-65
2022/07/09 14:18:13;;;;;;;5.35;5.15;;;;;;;;;;5086450;28;20032;-62
2022/07/09 14:20:38;;;;;;;5.40;5.20;;;;;;;;;;5091919;28;20020;-62
2022/07/09 14:23:04;;;;;;;5.70;5.50;;;;;;;;;;5092439;28;20020;-63
2022/07/09 14:25:29;;;;;;;5.70;5.50;;;;;;;;;;5090605;28;20939;-63
2022/07/09 14:27:54;;;;;;;5.68;5.47;;;;;;;;;;5091790;28;20099;-61
2022/07/09 14:30:19;;;;;;;5.57;5.38;;;;;;;;;;5087860;28;20024;-63
2022/07/09 14:32:45;;;;;;;5.40;5.20;;;;;;;;;;5089419;28;20020;-62
2022/07/09 14:35:10;;;;;;;5.50;5.30;;;;;;;;;;5080976;28;20075;-64